Scipio, Oklahoma
Current Conditions -  °F | °C
As of 1:53 PM on Thursday 29 Jan 2015 (Local Time) from KMLC Reporting Station
Clear Clear  
Wind Chill: 53°   Ceiling: Unl
Heat Index: 53°   Visibility: 10mi
Dew Point: 33°   Wind: 16mph
Humidity: 47%   Direction: 10°N
Pressure: 30.35"   Gusts: NA
Location:  34.9351°N, 95.8929°W
Report Text: KMLC 291953Z AUTO 01014KT 10SM CLR 12/01 A3035 RMK AO2 RAE1854 SLP275 P0000 T01170006
Loading
Personal Weather Stations






























Interactive Weather Map New forecast layout! Learn more

10-Day Weather Forecast

Advertisements
Track Severe Weather on mobile